Weather at Nusawiru Airport

Public forecast

Using degrees Celsius for public forecast. Weather courtesy of forecast.io.

Closest aviation weather report (METAR) to Nusawiru Airport

Closest report is Halim Perdanakusuma International Airport, 129.2 nm (239.2 km) NW.

2024/06/19 08:00 (retrieved 33 minutes ago)

WIHH 190800Z 05010KT 6000 SCT020 33/23 Q1005 NOSIG METAR WIMM 190800Z 35010KT 9999 FEW016CB SCT017 31/26 Q1006 NOSIG RMK CB TO S

Closest aviation forecast (TAF) to Nusawiru Airport

Closest forecast is Halim Perdanakusuma International Airport, 129.2 nm (239.2 km) NW.

2024/06/19 06:00 (retrieved 3 hours ago)

TAF WIHH 190500Z 1906/2006 12008KT 6000 SCT020 BECMG 1918/1920 03003KT 4000 HZ FEW020